createdAt,value
2018-08-09T00:04:45.323Z,50.5
2018-08-09T00:09:42.460Z,50.4
2018-08-09T00:14:39.279Z,50.5
2018-08-09T00:19:36.213Z,50.5
2018-08-09T00:24:33.191Z,50.6
2018-08-09T00:29:30.204Z,50.6
2018-08-09T00:34:27.285Z,50.6
2018-08-09T00:39:24.232Z,50.7
2018-08-09T00:44:21.272Z,50.7
2018-08-09T00:49:18.332Z,50.8
2018-08-09T00:54:15.385Z,50.8
2018-08-09T00:59:12.395Z,50.8
2018-08-09T01:04:09.416Z,50.7
2018-08-09T01:09:06.345Z,50.7
2018-08-09T01:14:03.341Z,50.8
2018-08-09T01:19:00.101Z,50.8
2018-08-09T01:23:57.144Z,50.8
2018-08-09T01:28:54.100Z,50.9
2018-08-09T01:33:51.164Z,50.9
2018-08-09T01:38:48.116Z,51
2018-08-09T01:43:45.161Z,51
2018-08-09T01:48:42.117Z,51
2018-08-09T01:53:39.060Z,51
2018-08-09T01:58:36.106Z,51
2018-08-09T02:03:32.989Z,50.9
2018-08-09T02:08:30.089Z,51
2018-08-09T02:13:27.136Z,51
2018-08-09T02:18:24.054Z,51.1
2018-08-09T02:23:20.796Z,51.1
2018-08-09T02:28:17.497Z,51.1
2018-08-09T02:33:14.470Z,51.2
2018-08-09T02:38:11.506Z,51.2
2018-08-09T02:43:08.653Z,51.3
2018-08-09T02:48:05.569Z,51.3
2018-08-09T02:53:02.541Z,51.3
2018-08-09T02:57:58.796Z,51.2
2018-08-09T03:02:55.859Z,51.2
2018-08-09T03:07:52.828Z,51.2
2018-08-09T03:12:49.665Z,51.3
2018-08-09T03:17:46.790Z,51.3
2018-08-09T03:22:44.015Z,51.4
2018-08-09T03:27:40.985Z,51.5
2018-08-09T03:32:38.091Z,51.5
2018-08-09T03:37:35.042Z,51.6
2018-08-09T03:42:32.136Z,51.6
2018-08-09T03:47:28.632Z,51.6
2018-08-09T03:52:25.685Z,51.5
2018-08-09T03:57:22.793Z,51.5
2018-08-09T04:02:19.903Z,51.5
2018-08-09T04:07:16.861Z,51.5
2018-08-09T04:12:13.796Z,51.5
2018-08-09T04:17:10.806Z,51.7
2018-08-09T04:22:07.943Z,51.6
2018-08-09T04:27:04.901Z,51.7
2018-08-09T04:32:01.856Z,51.7
2018-08-09T04:36:58.844Z,51.6
2018-08-09T04:41:55.851Z,51.5
2018-08-09T04:46:52.965Z,51.5
2018-08-09T04:51:49.239Z,51.6
2018-08-09T04:56:46.342Z,51.5
2018-08-09T05:01:43.767Z,51.6
2018-08-09T05:06:42.188Z,51.6
2018-08-09T05:11:40.250Z,51.7
2018-08-09T05:16:37.763Z,51.7
2018-08-09T05:21:36.255Z,51.8
2018-08-09T05:26:35.006Z,51.9
2018-08-09T05:31:33.193Z,51.9
2018-08-09T05:36:31.486Z,52
2018-08-09T05:41:28.552Z,52.1
2018-08-09T05:46:28.612Z,52.2
2018-08-09T05:51:26.750Z,52.3
2018-08-09T05:56:25.099Z,52.3
2018-08-09T06:01:23.792Z,52.4
2018-08-09T06:06:20.820Z,52.5
2018-08-09T06:11:21.212Z,52.5
2018-08-09T06:16:17.928Z,52.6
2018-08-09T06:21:14.941Z,52.6
2018-08-09T06:26:14.257Z,52.7
2018-08-09T06:31:11.279Z,52.8
2018-08-09T06:36:08.547Z,52.9
2018-08-09T06:41:05.380Z,53
2018-08-09T06:46:03.151Z,53.1
2018-08-09T06:51:00.124Z,53.2
2018-08-09T06:55:57.346Z,53.3
2018-08-09T07:00:54.381Z,53.4
2018-08-09T07:05:51.757Z,53.4
2018-08-09T07:10:48.961Z,53.6
2018-08-09T07:15:46.072Z,53.7
2018-08-09T07:20:43.297Z,53.9
2018-08-09T07:25:40.547Z,54.2
2018-08-09T07:30:37.706Z,54.3
2018-08-09T07:35:34.978Z,54.4
2018-08-09T07:40:32.792Z,54.5
2018-08-09T07:45:29.686Z,54.6
2018-08-09T07:50:27.563Z,54.6
2018-08-09T07:55:24.014Z,54.7
2018-08-09T08:00:20.533Z,54.7
2018-08-09T08:05:17.749Z,54.7
2018-08-09T08:10:14.818Z,54.9
2018-08-09T08:15:12.021Z,54.9
2018-08-09T08:20:08.784Z,54.9
2018-08-09T08:25:05.838Z,55
2018-08-09T08:30:02.962Z,55
2018-08-09T08:35:00.268Z,55.1
2018-08-09T08:39:57.286Z,55.2
2018-08-09T08:44:54.331Z,55.2
2018-08-09T08:49:51.548Z,55.2
2018-08-09T08:54:48.838Z,55.2
2018-08-09T08:59:46.052Z,55.2
2018-08-09T09:04:43.313Z,55.2
2018-08-09T09:09:40.366Z,55.3
2018-08-09T09:14:38.445Z,55.4
2018-08-09T09:19:35.603Z,55.3
2018-08-09T09:24:32.599Z,55.2
2018-08-09T09:29:30.467Z,55.3
2018-08-09T09:34:27.971Z,55.3
2018-08-09T09:39:25.030Z,55.2
2018-08-09T09:44:22.457Z,55.2
2018-08-09T09:49:20.639Z,55.1
2018-08-09T09:54:17.624Z,55.1
2018-08-09T09:59:14.763Z,55.1
2018-08-09T10:04:12.225Z,54.9
2018-08-09T10:09:09.583Z,54.5
2018-08-09T10:14:06.871Z,54.4
2018-08-09T10:19:03.953Z,54.2
2018-08-09T10:24:01.133Z,54.1
2018-08-09T10:28:58.339Z,53.9
2018-08-09T10:33:55.582Z,53.7
2018-08-09T10:38:52.829Z,53.5
2018-08-09T10:43:50.360Z,53.4
2018-08-09T10:48:47.595Z,53.1
2018-08-09T10:53:45.983Z,52.9
2018-08-09T10:58:43.516Z,52.9
2018-08-09T11:03:40.768Z,52.7
2018-08-09T11:08:39.990Z,52.7
2018-08-09T11:13:37.288Z,52.6
2018-08-09T11:18:34.435Z,52.5
2018-08-09T11:23:31.577Z,52.4
2018-08-09T11:28:28.701Z,52.4
2018-08-09T11:33:26.017Z,52.3
2018-08-09T11:38:23.233Z,52.1
2018-08-09T11:43:20.188Z,52
2018-08-09T11:48:18.118Z,51.9
2018-08-09T11:53:16.289Z,51.7
2018-08-09T11:58:13.355Z,51.6
2018-08-09T12:03:11.021Z,51.5
2018-08-09T12:08:08.725Z,51.4
2018-08-09T12:13:05.821Z,51.1
2018-08-09T12:18:02.947Z,51.1
2018-08-09T12:23:01.163Z,51
2018-08-09T12:27:59.516Z,50.7
2018-08-09T12:32:55.918Z,50.6
2018-08-09T12:37:53.035Z,50.5
2018-08-09T12:42:49.942Z,50.1
2018-08-09T12:47:49.816Z,49.8
2018-08-09T12:52:47.152Z,49.6
2018-08-09T12:57:47.048Z,49.9
2018-08-09T13:02:44.509Z,49.7
2018-08-09T13:07:41.558Z,49.4
2018-08-09T13:12:39.525Z,49.2
2018-08-09T13:17:36.412Z,49.2
2018-08-09T13:22:33.782Z,49.3
2018-08-09T13:27:31.125Z,49.5
2018-08-09T13:32:28.708Z,49.4
2018-08-09T13:37:26.231Z,49.4
2018-08-09T13:42:23.576Z,49.5
2018-08-09T13:47:20.707Z,49.3
2018-08-09T13:52:17.919Z,49.3
2018-08-09T13:57:15.150Z,49.3
2018-08-09T14:02:14.341Z,49.2
2018-08-09T14:07:12.425Z,49
2018-08-09T14:12:10.928Z,49.1
2018-08-09T14:17:08.046Z,49
2018-08-09T14:22:05.354Z,49.1
2018-08-09T14:27:02.328Z,49
2018-08-09T14:32:00.033Z,49
2018-08-09T14:36:56.966Z,49
2018-08-09T14:41:54.376Z,48.8
2018-08-09T14:46:51.639Z,48.7
2018-08-09T14:51:48.098Z,48.7
2018-08-09T14:56:45.406Z,48.6
2018-08-09T15:01:42.378Z,48.6
2018-08-09T15:06:42.519Z,48.4
2018-08-09T15:11:43.005Z,48.4
2018-08-09T15:16:39.976Z,48.1
2018-08-09T15:21:37.310Z,48
2018-08-09T15:26:34.535Z,47.9
2018-08-09T15:31:31.686Z,47.8
2018-08-09T15:36:29.138Z,47.8
2018-08-09T15:41:26.233Z,47.8
2018-08-09T15:46:23.302Z,47.8
2018-08-09T15:51:20.861Z,47.8
2018-08-09T15:56:18.117Z,47.8
2018-08-09T16:01:15.298Z,47.7
2018-08-09T16:06:12.396Z,47.6
2018-08-09T16:11:09.470Z,47.6
2018-08-09T16:16:06.870Z,47.4
2018-08-09T16:21:04.087Z,47.5
2018-08-09T16:26:01.045Z,47.5
2018-08-09T16:30:58.015Z,47.5
2018-08-09T16:35:55.577Z,47.4
2018-08-09T16:40:52.708Z,47.5
2018-08-09T16:45:49.902Z,47.6
2018-08-09T16:50:47.240Z,47.6
2018-08-09T16:55:44.208Z,47.6
2018-08-09T17:00:44.915Z,47.5
2018-08-09T17:05:42.355Z,47.5
2018-08-09T17:10:39.750Z,47.5
2018-08-09T17:15:37.608Z,47.5
2018-08-09T17:20:34.461Z,47.5
2018-08-09T17:25:31.713Z,47.5
2018-08-09T17:30:30.480Z,47.5
2018-08-09T17:35:27.569Z,47.6
2018-08-09T17:40:24.628Z,47.7
2018-08-09T17:45:21.373Z,47.8
2018-08-09T17:50:18.553Z,47.9
2018-08-09T17:55:15.665Z,47.8
2018-08-09T18:00:12.613Z,47.7
2018-08-09T18:05:09.298Z,47.7
2018-08-09T18:10:06.317Z,47.7
2018-08-09T18:15:03.350Z,47.7
2018-08-09T18:20:00.547Z,47.6
2018-08-09T18:24:57.659Z,47.6
2018-08-09T18:29:54.870Z,47.7
2018-08-09T18:34:51.992Z,47.8
2018-08-09T18:39:49.147Z,47.8
2018-08-09T18:44:46.187Z,47.8
2018-08-09T18:49:44.746Z,47.7
2018-08-09T18:54:41.600Z,47.7
2018-08-09T18:59:38.453Z,47.7
2018-08-09T19:04:35.803Z,47.6
2018-08-09T19:09:33.193Z,47.6
2018-08-09T19:14:30.094Z,47.6
2018-08-09T19:19:27.507Z,47.6
2018-08-09T19:24:24.692Z,47.5
2018-08-09T19:29:21.811Z,47.5
2018-08-09T19:34:18.685Z,47.4
2018-08-09T19:39:16.055Z,47.5
2018-08-09T19:44:13.025Z,47.6
2018-08-09T19:49:10.242Z,47.6
2018-08-09T19:54:07.531Z,47.6
2018-08-09T19:59:04.722Z,47.6
2018-08-09T20:04:01.957Z,47.6
2018-08-09T20:08:59.262Z,47.6
2018-08-09T20:13:56.298Z,47.6
2018-08-09T20:18:53.409Z,47.5
2018-08-09T20:23:50.510Z,47.4
2018-08-09T20:28:47.260Z,47.4
2018-08-09T20:33:43.861Z,47.5
2018-08-09T20:38:41.086Z,47.5
2018-08-09T20:43:38.647Z,47.6
2018-08-09T20:48:36.002Z,47.6
2018-08-09T20:53:33.382Z,47.6
2018-08-09T20:58:30.050Z,47.7
2018-08-09T21:03:27.214Z,47.7
2018-08-09T21:08:24.410Z,47.7
2018-08-09T21:13:21.551Z,47.8
2018-08-09T21:18:19.450Z,47.7
2018-08-09T21:23:16.305Z,47.6
2018-08-09T21:28:13.590Z,47.7
2018-08-09T21:33:10.230Z,47.8
2018-08-09T21:38:07.591Z,47.8
2018-08-09T21:43:04.607Z,47.8
2018-08-09T21:48:01.733Z,47.9
2018-08-09T21:52:58.842Z,47.9
2018-08-09T21:57:56.016Z,47.9
2018-08-09T22:02:53.313Z,47.9
2018-08-09T22:07:50.288Z,47.9
2018-08-09T22:12:47.607Z,47.9
2018-08-09T22:17:44.847Z,47.9
2018-08-09T22:22:42.025Z,47.9
2018-08-09T22:27:39.682Z,47.9
2018-08-09T22:32:38.120Z,48
2018-08-09T22:37:35.236Z,48
2018-08-09T22:42:32.467Z,48.1
2018-08-09T22:47:29.633Z,48.1
2018-08-09T22:52:26.158Z,48.2
2018-08-09T22:57:23.337Z,48.2
2018-08-09T23:02:20.590Z,48.3
2018-08-09T23:07:17.299Z,48.2
2018-08-09T23:12:14.362Z,48.1
2018-08-09T23:17:11.484Z,48.1
2018-08-09T23:22:08.778Z,48.1
2018-08-09T23:27:05.852Z,48.1
2018-08-09T23:32:02.858Z,48.2
2018-08-09T23:36:59.864Z,48.3
2018-08-09T23:41:56.842Z,48.4
2018-08-09T23:46:54.037Z,48.4
2018-08-09T23:51:50.554Z,48.4
2018-08-09T23:56:47.675Z,48.4
